Emu Arrow — C6OR4 — position and weather

sailwx.info

Track history (hours):
 
Tides and Currents Weather Stations Pressure Air Temp Water Temp Dewpoint Dewpoint Depression Visibility Wind Speed Wind Dir Waves Ship Positions

Emu Arrow

Last reported at 2015-Apr-18 12:33 UTC. Time now 2015-Apr-21 05:01 UTC.
Position N 34°58' E 139°31'.

Length 200 m; draft 10.2 m.

Type: Cargo ship. MMSI: 309805000.

Date/timePositionNaut miles runAvg speedWind from/ knotsBaromVisibWave heightAir tempDewpointWater temp
2015-Apr-18 12:33N 34°58' E 139°31'1110.9
2015-Apr-18 11:33N 35°05' E 139°41'9 9.3
2015-Apr-18 10:33N 35°14' E 139°46'1110.6
2015-Apr-18 09:33N 35°24' E 139°43'4 4.1
2015-Apr-18 08:33N 35°28' E 139°42'0 0.0
2015-Apr-18 07:29N 35°28' E 139°42'0 0.0
2015-Apr-18 06:29N 35°28' E 139°42'0 0.0
2015-Apr-18 05:23N 35°28' E 139°42'0 0.0
2015-Apr-18 04:32N 35°28' E 139°42'0 0.0
2015-Apr-18 03:32N 35°28' E 139°42'0 0.0
2015-Apr-18 02:32N 35°28' E 139°42'0 0.0
2015-Apr-18 01:32N 35°28' E 139°42'0 0.0
2015-Apr-18 00:32N 35°28' E 139°42'0 0.0
2015-Apr-17 23:32N 35°28' E 139°42'0 0.0
2015-Apr-17 22:32N 35°28' E 139°42'0 0.0
2015-Apr-17 21:32N 35°28' E 139°42'0 0.0
2015-Apr-17 20:32N 35°28' E 139°42'0 0.0
2015-Apr-17 19:32N 35°28' E 139°42'0 0.0
2015-Apr-17 18:32N 35°28' E 139°42'0 0.0
2015-Apr-17 17:32N 35°28' E 139°42'0 0.0
2015-Apr-17 16:32N 35°28' E 139°42'0 0.0
2015-Apr-17 15:32N 35°28' E 139°42'0 0.0
2015-Apr-17 14:32N 35°28' E 139°42'0 0.0
2015-Apr-17 13:32N 35°28' E 139°42'0 0.0
2015-Apr-17 12:32N 35°28' E 139°42'0 0.0
2015-Apr-17 11:32N 35°28' E 139°42'0 0.0
2015-Apr-17 10:32N 35°28' E 139°42'0 0.0
2015-Apr-17 09:32N 35°28' E 139°42'0 0.0
2015-Apr-17 08:32N 35°28' E 139°42'0 0.0
2015-Apr-17 07:31N 35°28' E 139°42'0 0.0
2015-Apr-17 06:32N 35°28' E 139°42'0 0.0
2015-Apr-17 05:32N 35°28' E 139°42'0 0.0
2015-Apr-17 04:31N 35°28' E 139°42'0 0.1
2015-Apr-17 03:33N 35°28' E 139°42'6 5.9
2015-Apr-17 02:33N 35°23' E 139°46'1110.8
2015-Apr-17 01:33N 35°12' E 139°47'6 5.8
2015-Apr-17 00:33N 35°06' E 139°46'8 7.6
2015-Apr-16 23:33N 34°60' E 139°41'9 8.4
2015-Apr-16 22:31N 34°52' E 139°45'10 9.5
2015-Apr-16 21:26N 34°46' E 139°56'18 9.4
2015-Apr-16 19:31N 34°39' E 140°16'  
Track history (hours):
 
Tides and Currents Weather Stations Pressure Air Temp Water Temp Dewpoint Dewpoint Depression Visibility Wind Speed Wind Dir Waves Ship Positions

Emu Arrow

Last reported at 2015-Apr-18 12:33 UTC. Time now 2015-Apr-21 05:01 UTC.
Position N 34°58' E 139°31'.

Length 200 m; draft 10.2 m.

Type: Cargo ship. MMSI: 309805000.

Date/timePositionNaut miles runAvg speedWind from/ knotsBaromVisibWave heightAir tempDewpointWater temp
2015-Apr-18 12:33N 34°58' E 139°31'1110.9
2015-Apr-18 11:33N 35°05' E 139°41'9 9.3
2015-Apr-18 10:33N 35°14' E 139°46'1110.6
2015-Apr-18 09:33N 35°24' E 139°43'4 4.1
2015-Apr-18 08:33N 35°28' E 139°42'0 0.0
2015-Apr-18 07:29N 35°28' E 139°42'0 0.0
2015-Apr-18 06:29N 35°28' E 139°42'0 0.0
2015-Apr-18 05:23N 35°28' E 139°42'0 0.0
2015-Apr-18 04:32N 35°28' E 139°42'0 0.0
2015-Apr-18 03:32N 35°28' E 139°42'0 0.0
2015-Apr-18 02:32N 35°28' E 139°42'0 0.0
2015-Apr-18 01:32N 35°28' E 139°42'0 0.0
2015-Apr-18 00:32N 35°28' E 139°42'0 0.0
2015-Apr-17 23:32N 35°28' E 139°42'0 0.0
2015-Apr-17 22:32N 35°28' E 139°42'0 0.0
2015-Apr-17 21:32N 35°28' E 139°42'0 0.0
2015-Apr-17 20:32N 35°28' E 139°42'0 0.0
2015-Apr-17 19:32N 35°28' E 139°42'0 0.0
2015-Apr-17 18:32N 35°28' E 139°42'0 0.0
2015-Apr-17 17:32N 35°28' E 139°42'0 0.0
2015-Apr-17 16:32N 35°28' E 139°42'0 0.0
2015-Apr-17 15:32N 35°28' E 139°42'0 0.0
2015-Apr-17 14:32N 35°28' E 139°42'0 0.0
2015-Apr-17 13:32N 35°28' E 139°42'0 0.0
2015-Apr-17 12:32N 35°28' E 139°42'0 0.0
2015-Apr-17 11:32N 35°28' E 139°42'0 0.0
2015-Apr-17 10:32N 35°28' E 139°42'0 0.0
2015-Apr-17 09:32N 35°28' E 139°42'0 0.0
2015-Apr-17 08:32N 35°28' E 139°42'0 0.0
2015-Apr-17 07:31N 35°28' E 139°42'0 0.0
2015-Apr-17 06:32N 35°28' E 139°42'0 0.0
2015-Apr-17 05:32N 35°28' E 139°42'0 0.0
2015-Apr-17 04:31N 35°28' E 139°42'0 0.1
2015-Apr-17 03:33N 35°28' E 139°42'6 5.9
2015-Apr-17 02:33N 35°23' E 139°46'1110.8
2015-Apr-17 01:33N 35°12' E 139°47'6 5.8
2015-Apr-17 00:33N 35°06' E 139°46'8 7.6
2015-Apr-16 23:33N 34°60' E 139°41'9 8.4
2015-Apr-16 22:31N 34°52' E 139°45'10 9.5
2015-Apr-16 21:26N 34°46' E 139°56'18 9.4
2015-Apr-16 19:31N 34°39' E 140°16'  

Dump ship's entire track history